createdAt,value
2018-08-25T00:02:27.384Z,99773.06
2018-08-25T00:07:11.346Z,99767.63
2018-08-25T00:11:54.745Z,99771.06
2018-08-25T00:16:42.551Z,99761.73
2018-08-25T00:21:25.797Z,99757.59
2018-08-25T00:26:09.209Z,99755.22
2018-08-25T00:30:58.818Z,99762.19
2018-08-25T00:35:42.153Z,99754.92
2018-08-25T00:40:28.689Z,99746.18
2018-08-25T00:45:11.948Z,99744.30
2018-08-25T00:49:58.805Z,99748.03
2018-08-25T00:54:42.147Z,99746.95
2018-08-25T00:59:26.679Z,99746.07
2018-08-25T01:04:09.961Z,99737.75
2018-08-25T01:08:54.463Z,99749.52
2018-08-25T01:13:37.787Z,99749.05
2018-08-25T01:18:24.748Z,99760.70
2018-08-25T01:23:07.960Z,99751.34
2018-08-25T01:27:52.973Z,99755.35
2018-08-25T01:32:36.440Z,99760.52
2018-08-25T01:37:19.834Z,99760.59
2018-08-25T01:42:03.346Z,99754.18
2018-08-25T01:46:47.665Z,99759.98
2018-08-25T01:51:31.062Z,99751.55
2018-08-25T01:56:14.455Z,99752.91
2018-08-25T02:00:58.977Z,99747.70
2018-08-25T02:05:42.277Z,99748.28
2018-08-25T02:10:26.759Z,99748.52
2018-08-25T02:15:10.124Z,99746.66
2018-08-25T02:19:57.161Z,99748.80
2018-08-25T02:24:40.496Z,99748.77
2018-08-25T02:29:27.488Z,99756.55
2018-08-25T02:34:10.950Z,99745.41
2018-08-25T02:38:55.334Z,99746.80
2018-08-25T02:43:38.604Z,99749.67
2018-08-25T02:48:22.163Z,99756.23
2018-08-25T02:53:05.474Z,99748.48
2018-08-25T02:57:49.996Z,99754.48
2018-08-25T03:02:33.379Z,99759.98
2018-08-25T03:07:16.718Z,99754.02
2018-08-25T03:12:00.055Z,99750.47
2018-08-25T03:16:43.516Z,99757.07
2018-08-25T03:21:26.952Z,99765.65
2018-08-25T03:26:16.275Z,99770.95
2018-08-25T03:30:59.658Z,99766.52
2018-08-25T03:37:12.292Z,99773.30
2018-08-25T03:41:55.701Z,99779.45
2018-08-25T03:46:40.116Z,99767.61
2018-08-25T03:51:23.530Z,99773.80
2018-08-25T03:56:08.013Z,99775.23
2018-08-25T04:00:51.398Z,99776.56
2018-08-25T04:05:34.824Z,99781.27
2018-08-25T04:10:22.106Z,99782.98
2018-08-25T04:15:06.861Z,99780.50
2018-08-25T04:19:50.264Z,99782.59
2018-08-25T04:24:33.730Z,99789.38
2018-08-25T04:29:18.162Z,99789.78
2018-08-25T04:34:01.517Z,99791.38
2018-08-25T04:38:45.649Z,99788.25
2018-08-25T04:43:28.990Z,99791.12
2018-08-25T04:48:17.225Z,99786.34
2018-08-25T04:53:01.002Z,99791.75
2018-08-25T04:57:48.245Z,99797.25
2018-08-25T05:02:31.718Z,99804.66
2018-08-25T05:07:15.313Z,99805.23
2018-08-25T05:11:58.685Z,99801.75
2018-08-25T05:16:42.302Z,99802.37
2018-08-25T05:21:25.969Z,99799.99
2018-08-25T05:26:10.434Z,99790.84
2018-08-25T05:30:53.781Z,99790.07
2018-08-25T05:35:37.293Z,99783.11
2018-08-25T05:40:22.244Z,99785.34
2018-08-25T05:45:05.656Z,99784.54
2018-08-25T05:49:50.220Z,99779.70
2018-08-25T05:54:33.573Z,99788.30
2018-08-25T05:59:20.876Z,99786.67
2018-08-25T06:04:04.293Z,99784.62
2018-08-25T06:08:47.871Z,99788.64
2018-08-25T06:13:31.150Z,99784.60
2018-08-25T06:18:14.661Z,99787.01
2018-08-25T06:22:58.075Z,99791.73
2018-08-25T06:27:44.962Z,99798.51
2018-08-25T06:32:28.381Z,99788.08
2018-08-25T06:37:12.253Z,99790.02
2018-08-25T06:41:55.534Z,99795.08
2018-08-25T06:46:42.591Z,99792.47
2018-08-25T06:51:25.897Z,99798.09
2018-08-25T06:56:10.512Z,99795.63
2018-08-25T07:00:54.650Z,99798.58
2018-08-25T07:05:38.049Z,99793.75
2018-08-25T07:10:21.435Z,99800.99
2018-08-25T07:15:05.698Z,99801.70
2018-08-25T07:19:50.026Z,99805.15
2018-08-25T07:24:33.358Z,99806.75
2018-08-25T07:29:18.019Z,99805.34
2018-08-25T07:34:01.397Z,99804.72
2018-08-25T07:38:45.225Z,99801.91
2018-08-25T07:43:28.720Z,99806.36
2018-08-25T07:48:12.276Z,99798.73
2018-08-25T07:52:55.610Z,99797.96
2018-08-25T07:57:39.278Z,99795.58
2018-08-25T08:02:22.692Z,99798.10
2018-08-25T08:07:06.300Z,99791.32
2018-08-25T08:11:50.051Z,99786.64
2018-08-25T08:16:37.253Z,99780.72
2018-08-25T08:21:20.641Z,99777.83
2018-08-25T08:26:04.307Z,99782.82
2018-08-25T08:30:47.968Z,99776.23
2018-08-25T08:35:31.865Z,99779.91
2018-08-25T08:40:15.362Z,99779.86
2018-08-25T08:44:58.690Z,99771.98
2018-08-25T08:49:46.817Z,99768.28
2018-08-25T08:54:26.731Z,99778.10
2018-08-25T08:59:10.359Z,99768.92
2018-08-25T09:03:54.013Z,99761.09
2018-08-25T09:08:37.680Z,99759.02
2018-08-25T09:13:21.080Z,99759.22
2018-08-25T09:18:05.687Z,99755.51
2018-08-25T09:22:49.147Z,99757.44
2018-08-25T09:27:32.820Z,99756.16
2018-08-25T09:32:16.176Z,99750.27
2018-08-25T09:36:59.711Z,99759.33
2018-08-25T09:41:43.010Z,99755.41
2018-08-25T09:46:27.541Z,99753.95
2018-08-25T09:51:11.048Z,99757.30
2018-08-25T09:55:54.723Z,99752.95
2018-08-25T10:00:38.535Z,99740.80
2018-08-25T10:05:23.166Z,99742.63
2018-08-25T10:10:07.707Z,99735.06
2018-08-25T10:14:51.097Z,99735.57
2018-08-25T10:19:35.551Z,99734.55
2018-08-25T10:24:18.990Z,99730.48
2018-08-25T10:29:02.629Z,99722.03
2018-08-25T10:33:45.932Z,99720.19
2018-08-25T10:38:31.349Z,99720.30
2018-08-25T10:43:14.617Z,99720.34
2018-08-25T10:47:58.211Z,99712.94
2018-08-25T10:52:42.058Z,99706.97
2018-08-25T10:57:25.595Z,99705.14
2018-08-25T11:02:16.816Z,99699.38
2018-08-25T11:07:00.209Z,99698.28
2018-08-25T11:11:43.647Z,99693.48
2018-08-25T11:16:27.305Z,99693.73
2018-08-25T11:21:10.694Z,99687.52
2018-08-25T11:25:54.337Z,99689.78
2018-08-25T11:30:38.121Z,99683.91
2018-08-25T11:35:22.994Z,99675.02
2018-08-25T11:40:06.490Z,99673.20
2018-08-25T11:44:49.951Z,99669.77
2018-08-25T11:49:33.159Z,99669.05
2018-08-25T11:54:16.530Z,99675.59
2018-08-25T11:59:00.158Z,99665.94
2018-08-25T12:03:43.697Z,99670.61
2018-08-25T12:08:27.202Z,99661.68
2018-08-25T12:13:10.682Z,99652.02
2018-08-25T12:17:54.198Z,99638.70
2018-08-25T12:22:37.564Z,99634.08
2018-08-25T12:27:21.081Z,99636.16
2018-08-25T12:32:04.470Z,99632.50
2018-08-25T12:36:47.834Z,99636.38
2018-08-25T12:41:31.701Z,99635.56
2018-08-25T12:46:15.293Z,99631.80
2018-08-25T12:50:58.638Z,99627.11
2018-08-25T12:55:41.963Z,99628.02
2018-08-25T13:00:25.412Z,99623.69
2018-08-25T13:05:08.980Z,99623.38
2018-08-25T13:09:52.440Z,99617.95
2018-08-25T13:14:35.951Z,99618.95
2018-08-25T13:19:19.184Z,99615.17
2018-08-25T13:24:02.536Z,99619.80
2018-08-25T13:28:47.130Z,99620.16
2018-08-25T13:33:30.542Z,99613.13
2018-08-25T13:38:13.850Z,99611.75
2018-08-25T13:42:57.163Z,99610.50
2018-08-25T13:47:40.771Z,99613.09
2018-08-25T13:52:24.104Z,99610.27
2018-08-25T13:57:07.455Z,99605.95
2018-08-25T14:01:50.908Z,99599.72
2018-08-25T14:06:37.900Z,99603.22
2018-08-25T14:11:21.322Z,99598.37
2018-08-25T14:16:05.778Z,99592.62
2018-08-25T14:20:49.019Z,99594.63
2018-08-25T14:25:38.662Z,99593.72
2018-08-25T14:30:22.534Z,99585.66
2018-08-25T14:35:07.001Z,99580.44
2018-08-25T14:39:50.429Z,99581.13
2018-08-25T14:44:35.054Z,99584.02
2018-08-25T14:49:18.529Z,99585.91
2018-08-25T14:54:01.970Z,99584.61
2018-08-25T14:58:49.162Z,99582.40
2018-08-25T15:03:37.571Z,99578.73
2018-08-25T15:08:24.606Z,99579.63
2018-08-25T15:13:07.972Z,99584.18
2018-08-25T15:17:52.268Z,99578.11
2018-08-25T15:22:35.714Z,99580.14
2018-08-25T15:27:20.315Z,99585.39
2018-08-25T15:32:03.597Z,99581.49
2018-08-25T15:36:47.258Z,99578.16
2018-08-25T15:41:30.643Z,99577.98
2018-08-25T15:46:14.084Z,99584.91
2018-08-25T15:50:57.193Z,99580.86
2018-08-25T15:55:41.590Z,99580.05
2018-08-25T16:00:24.928Z,99573.94
2018-08-25T16:05:12.059Z,99576.00
2018-08-25T16:09:55.495Z,99580.08
2018-08-25T16:14:39.027Z,99574.33
2018-08-25T16:19:22.564Z,99577.52
2018-08-25T16:24:05.879Z,99577.38
2018-08-25T16:28:52.947Z,99575.67
2018-08-25T16:33:36.319Z,99578.73
2018-08-25T16:38:19.861Z,99570.49
2018-08-25T16:43:03.150Z,99574.89
2018-08-25T16:47:46.638Z,99573.53
2018-08-25T16:52:29.956Z,99570.87
2018-08-25T16:57:13.970Z,99577.61
2018-08-25T17:01:57.479Z,99581.66
2018-08-25T17:06:41.106Z,99583.83
2018-08-25T17:11:24.876Z,99589.05
2018-08-25T17:16:08.596Z,99588.38
2018-08-25T17:20:51.955Z,99592.78
2018-08-25T17:25:35.306Z,99602.06
2018-08-25T17:30:19.211Z,99602.06
2018-08-25T17:35:02.676Z,99592.09
2018-08-25T17:39:46.207Z,99609.47
2018-08-25T17:44:29.718Z,99615.41
2018-08-25T17:49:13.370Z,99617.03
2018-08-25T17:53:56.782Z,99622.70
2018-08-25T17:58:40.281Z,99624.58
2018-08-25T18:03:23.721Z,99626.80
2018-08-25T18:08:07.414Z,99638.55
2018-08-25T18:12:50.788Z,99641.47
2018-08-25T18:17:34.671Z,99645.23
2018-08-25T18:22:18.508Z,99643.66
2018-08-25T18:27:02.196Z,99648.17
2018-08-25T18:31:45.631Z,99642.30
2018-08-25T18:36:29.074Z,99648.47
2018-08-25T18:41:12.594Z,99641.65
2018-08-25T18:45:59.100Z,99635.21
2018-08-25T18:50:42.463Z,99642.16
2018-08-25T18:55:26.030Z,99653.09
2018-08-25T19:00:09.540Z,99645.45
2018-08-25T19:04:53.035Z,99642.60
2018-08-25T19:09:36.462Z,99652.02
2018-08-25T19:14:20.165Z,99643.95
2018-08-25T19:19:03.395Z,99657.00
2018-08-25T19:23:46.887Z,99658.19
2018-08-25T19:28:30.243Z,99647.67
2018-08-25T19:33:13.619Z,99644.96
2018-08-25T19:37:57.093Z,99657.34
2018-08-25T19:42:40.485Z,99660.78
2018-08-25T19:47:25.090Z,99646.41
2018-08-25T19:52:08.487Z,99658.70
2018-08-25T19:56:52.230Z,99649.39
2018-08-25T20:01:35.711Z,99657.87
2018-08-25T20:06:22.587Z,99658.45
2018-08-25T20:11:05.882Z,99659.05
2018-08-25T20:15:52.960Z,99655.94
2018-08-25T20:20:36.693Z,99657.70
2018-08-25T20:25:20.243Z,99661.78
2018-08-25T20:30:03.717Z,99668.41
2018-08-25T20:34:47.118Z,99654.98
2018-08-25T20:39:30.619Z,99654.72
2018-08-25T20:44:15.058Z,99656.97
2018-08-25T20:48:58.436Z,99661.08
2018-08-25T20:53:41.849Z,99655.14
2018-08-25T20:58:25.283Z,99660.41
2018-08-25T21:03:08.707Z,99656.41
2018-08-25T21:07:53.067Z,99646.58
2018-08-25T21:12:36.602Z,99646.38
2018-08-25T21:17:20.209Z,99644.05
2018-08-25T21:22:03.661Z,99645.00
2018-08-25T21:26:47.009Z,99639.22
2018-08-25T21:31:30.469Z,99625.56
2018-08-25T21:36:13.977Z,99629.70
2018-08-25T21:40:57.374Z,99633.98
2018-08-25T21:45:44.379Z,99629.69
2018-08-25T21:50:27.730Z,99625.55
2018-08-25T21:55:14.554Z,99637.63
2018-08-25T21:59:57.994Z,99626.47
2018-08-25T22:04:41.553Z,99628.77
2018-08-25T22:09:24.923Z,99627.11
2018-08-25T22:14:09.281Z,99615.88
2018-08-25T22:18:52.698Z,99614.11
2018-08-25T22:23:37.118Z,99607.02
2018-08-25T22:28:20.465Z,99605.39
2018-08-25T22:33:03.959Z,99604.55
2018-08-25T22:37:49.096Z,99599.17
2018-08-25T22:42:32.233Z,99612.87
2018-08-25T22:47:16.665Z,99595.20
2018-08-25T22:51:59.906Z,99598.64
2018-08-25T22:56:43.473Z,99594.46
2018-08-25T23:01:26.892Z,99592.23
2018-08-25T23:06:11.149Z,99593.70
2018-08-25T23:10:54.573Z,99593.62
2018-08-25T23:15:38.848Z,99586.14
2018-08-25T23:20:22.259Z,99584.92
2018-08-25T23:25:06.547Z,99584.09
2018-08-25T23:29:49.886Z,99581.77
2018-08-25T23:34:34.381Z,99573.22
2018-08-25T23:39:17.756Z,99570.61
2018-08-25T23:44:05.058Z,99564.02
2018-08-25T23:48:48.441Z,99568.96
2018-08-25T23:53:31.930Z,99562.78
2018-08-25T23:58:15.326Z,99572.06
